Fiddletown, California
Current Conditions -  °F | °C
As of 6:15 AM on Friday 28 Nov 2014 (Local Time) from KPVF Reporting Station
Clear Clear  
Wind Chill: 57°   Ceiling: Unl
Heat Index: 57°   Visibility: 10mi
Dew Point: 14°   Wind: 7mph
Humidity: 18%   Direction: 140°SE
Pressure: 30.04"   Gusts: NA
Location:  38.5°N, 120.75°W
Report Text: KPVF 281415Z AUTO 14006KT 10SM CLR 14/M10 A3004 RMK AO1
Loading
Personal Weather Stations






























Interactive Weather Map New forecast layout! Learn more

10-Day Weather Forecast

Advertisements
Track Severe Weather on mobile